Time;durP1;ratioP1;P1;durP2;ratioP2;P2;SDS_P1;SDS_P2;PMS_P1;PMS_P2;Temp;Humidity;BMP_temperature;BMP_pressure;BME280_temperature;BME280_humidity;BME280_pressure;Samples;Min_cycle;Max_cycle;Signal;HPM_P1;HPM_P2
2021/07/24 00:00:06;;;;;;;;;;;;;;;-142.75;68.94;76796.69;5068359;28;19970;-76
2021/07/24 00:02:31;;;;;;;;;;;;;;;-142.75;69.00;76802.56;5068615;28;19917;-76
2021/07/24 00:04:56;;;;;;;;;;;;;;;-142.75;69.26;76800.63;5067445;28;19932;-75
2021/07/24 00:07:21;;;;;;;;;;;;;;;-142.75;69.57;76788.81;5065737;28;20023;-76
2021/07/24 00:09:46;;;;;;;;;;;;;;;-142.75;69.51;76786.84;5068816;28;19999;-74
2021/07/24 00:12:12;;;;;;;;;;;;;;;-142.75;69.60;76786.84;5068557;28;19920;-77
2021/07/24 00:14:37;;;;;;;;;;;;;;;-142.75;69.49;76777.00;5067100;28;19923;-75
2021/07/24 00:17:02;;;;;;;;;;;;;;;-142.75;68.95;76777.00;5068532;28;19969;-77
2021/07/24 00:19:27;;;;;;;;;;;;;;;-142.75;68.79;76777.00;5068679;28;19988;-76
2021/07/24 00:21:53;;;;;;;;;;;;;;;-142.75;69.21;76771.09;5067768;28;19916;-76
2021/07/24 00:24:18;;;;;;;;;;;;;;;-142.75;69.21;76759.28;5068244;28;20382;-74
2021/07/24 00:26:43;;;;;;;;;;;;;;;-142.75;68.96;76757.31;5068174;28;20408;-74
2021/07/24 00:29:08;;;;;;;;;;;;;;;-142.75;68.92;76751.41;5068159;28;19964;-75
2021/07/24 00:31:34;;;;;;;;;;;;;;;-142.75;69.13;76739.59;5067945;28;19920;-76
2021/07/24 00:33:59;;;;;;;;;;;;;;;-142.75;68.82;76733.69;5068432;28;20293;-76
2021/07/24 00:36:24;;;;;;;;;;;;;;;-142.75;68.57;76731.72;5068198;28;19971;-76
2021/07/24 00:38:50;;;;;;;;;;;;;;;-142.75;68.68;76731.72;5067959;28;19916;-76
2021/07/24 00:41:35;;;;;;;;;;;;;;;-142.75;68.61;76721.88;5067237;28;19943;-76
2021/07/24 00:44:01;;;;;;;;;;;;;;;-142.75;68.71;76719.91;5067435;28;19921;-77
2021/07/24 00:46:28;;;;;;;;;;;;;;;-142.75;68.62;76723.84;5071217;28;19942;-75
2021/07/24 00:48:54;;;;;;;;;;;;;;;-142.75;68.95;76725.81;5070766;28;19924;-76
2021/07/24 00:51:28;;;;;;;;;;;;;;;-142.75;69.09;76717.94;5071723;28;19916;-75
2021/07/24 00:53:54;;;;;;;;;;;;;;;-142.75;69.46;76700.22;5071956;28;19939;-75
2021/07/24 00:56:19;;;;;;;;;;;;;;;-142.75;68.91;76692.34;5071735;28;20369;-76
2021/07/24 00:58:45;;;;;;;;;;;;;;;-142.75;68.96;76692.34;5071640;28;19991;-77
2021/07/24 01:01:10;;;;;;;;;;;;;;;-142.75;68.89;76682.50;5071435;28;19961;-76
2021/07/24 01:03:35;;;;;;;;;;;;;;;-142.75;68.43;76680.53;5070284;28;19917;-76
2021/07/24 01:06:01;;;;;;;;;;;;;;;-142.75;68.54;76682.50;5071810;28;19939;-76
2021/07/24 01:08:29;;;;;;;;;;;;;;;-142.75;68.66;76676.59;5070207;28;19917;-76
2021/07/24 01:10:55;;;;;;;;;;;;;;;-142.75;68.55;76658.88;5071617;28;19917;-76
2021/07/24 01:13:20;;;;;;;;;;;;;;;-142.75;68.05;76649.03;5071711;28;19917;-73
2021/07/24 01:15:50;;;;;;;;;;;;;;;-142.75;68.09;76643.13;5070098;28;20009;-76
2021/07/24 01:18:16;;;;;;;;;;;;;;;-142.75;68.12;76633.28;5070010;28;19924;-75
2021/07/24 01:20:41;;;;;;;;;;;;;;;-142.75;67.80;76631.31;5070008;28;19923;-75
2021/07/24 01:23:08;;;;;;;;;;;;;;;-142.75;67.78;76633.28;5070040;28;20338;-75
2021/07/24 01:25:33;;;;;;;;;;;;;;;-142.75;68.00;76619.50;5071153;28;20342;-76
2021/07/24 01:27:58;;;;;;;;;;;;;;;-142.75;67.80;76621.47;5071154;28;19917;-76
2021/07/24 01:30:23;;;;;;;;;;;;;;;-142.75;67.76;76615.56;5070909;28;20401;-75
2021/07/24 01:32:49;;;;;;;;;;;;;;;-142.75;67.51;76617.53;5071073;28;19917;-77
2021/07/24 01:35:14;;;;;;;;;;;;;;;-142.75;67.73;76615.56;5070022;28;20308;-77
2021/07/24 01:37:39;;;;;;;;;;;;;;;-142.75;67.93;76617.53;5067550;28;19923;-76
2021/07/24 01:40:05;;;;;;;;;;;;;;;-142.75;67.94;76619.50;5071034;28;20339;-76
2021/07/24 01:42:30;;;;;;;;;;;;;;;-142.75;68.09;76629.34;5070830;28;19942;-73
2021/07/24 01:44:55;;;;;;;;;;;;;;;-142.75;68.41;76633.28;5071012;28;19927;-74
2021/07/24 01:47:20;;;;;;;;;;;;;;;-142.75;68.43;76627.38;5071042;28;20309;-75
2021/07/24 01:52:46;;;;;;;;;;;;;;;-142.75;68.39;76621.47;5070764;28;19977;-74
2021/07/24 01:55:17;;;;;;;;;;;;;;;-142.75;68.18;76621.47;5070829;28;21397;-76
2021/07/24 01:57:46;;;;;;;;;;;;;;;-142.75;68.37;76613.59;5068085;28;19920;-76
2021/07/24 02:00:12;;;;;;;;;;;;;;;-142.75;68.32;76623.44;5069063;28;19941;-76
2021/07/24 02:02:38;;;;;;;;;;;;;;;-142.75;68.37;76617.53;5070632;28;19940;-73
2021/07/24 02:05:05;;;;;;;;;;;;;;;-142.75;68.40;76627.38;5070538;28;19955;-75
2021/07/24 02:07:34;;;;;;;;;;;;;;;-142.75;68.64;76627.38;5070387;28;19924;-77
2021/07/24 02:09:59;;;;;;;;;;;;;;;-142.75;68.79;76631.31;5069145;28;20019;-77
2021/07/24 02:12:25;;;;;;;;;;;;;;;-142.75;68.71;76647.06;5070597;28;19999;-74
2021/07/24 02:14:50;;;;;;;;;;;;;;;-142.75;68.91;76666.75;5068939;28;20362;-76
2021/07/24 02:17:15;;;;;;;;;;;;;;;-142.75;69.35;76684.47;5069257;28;20298;-76
2021/07/24 02:19:40;;;;;;;;;;;;;;;-142.75;69.71;76698.25;5069149;28;19955;-76
2021/07/24 02:22:06;;;;;;;;;;;;;;;-142.75;69.87;76704.16;5068638;28;19917;-75
2021/07/24 02:24:31;;;;;;;;;;;;;;;-142.75;70.21;76702.19;5068734;28;20156;-76
2021/07/24 02:26:56;;;;;;;;;;;;;;;-142.75;70.15;76682.50;5070014;28;19927;-77
2021/07/24 02:29:21;;;;;;;;;;;;;;;-142.75;69.96;76676.59;5068771;28;20003;-77
2021/07/24 02:31:46;;;;;;;;;;;;;;;-142.75;70.25;76676.59;5068342;28;19924;-76
2021/07/24 02:34:11;;;;;;;;;;;;;;;-142.75;70.19;76668.72;5068692;28;19920;-76
2021/07/24 02:36:37;;;;;;;;;;;;;;;-142.75;70.08;76664.78;5070156;28;19934;-75
2021/07/24 02:39:02;;;;;;;;;;;;;;;-142.75;70.12;76660.84;5069836;28;19927;-76
2021/07/24 02:41:27;;;;;;;;;;;;;;;-142.75;70.28;76651.00;5069688;28;19991;-74
2021/07/24 02:43:52;;;;;;;;;;;;;;;-142.75;69.99;76649.03;5070016;28;19962;-75
2021/07/24 02:46:19;;;;;;;;;;;;;;;-142.75;69.97;76652.97;5069920;28;20393;-75
2021/07/24 02:48:46;;;;;;;;;;;;;;;-142.75;70.00;76668.72;5069652;28;20437;-76
2021/07/24 02:51:11;;;;;;;;;;;;;;;-142.75;70.24;76674.63;5068302;28;19999;-76
2021/07/24 02:53:36;;;;;;;;;;;;;;;-142.75;70.48;76672.66;5068288;28;20091;-76
2021/07/24 02:56:01;;;;;;;;;;;;;;;-142.75;70.56;76672.66;5069459;28;19936;-75
2021/07/24 02:58:27;;;;;;;;;;;;;;;-142.75;70.67;76649.03;5069479;28;19916;-76
2021/07/24 03:00:52;;;;;;;;;;;;;;;-142.75;70.55;76633.28;5067574;28;19943;-74
2021/07/24 03:03:17;;;;;;;;;;;;;;;-142.75;70.30;76609.66;5067868;28;19917;-74
2021/07/24 03:05:42;;;;;;;;;;;;;;;-142.75;70.00;76586.03;5069625;28;19921;-76
2021/07/24 03:08:07;;;;;;;;;;;;;;;-142.75;69.96;76580.13;5067694;28;19920;-76
2021/07/24 03:10:33;;;;;;;;;;;;;;;-142.75;70.00;76578.16;5068175;28;20012;-75
2021/07/24 03:12:58;;;;;;;;;;;;;;;-142.75;70.20;76586.03;5068098;28;19924;-76
2021/07/24 03:15:23;;;;;;;;;;;;;;;-142.75;70.25;76607.69;5069166;28;19923;-77
2021/07/24 03:17:48;;;;;;;;;;;;;;;-142.75;70.48;76611.63;5069189;28;20073;-76
2021/07/24 03:20:13;;;;;;;;;;;;;;;-142.75;70.38;76611.63;5067795;28;19999;-76
2021/07/24 03:22:39;;;;;;;;;;;;;;;-142.75;70.23;76613.59;5069108;28;19916;-77
2021/07/24 03:25:04;;;;;;;;;;;;;;;-142.75;70.46;76625.41;5067824;28;20076;-75
2021/07/24 03:27:29;;;;;;;;;;;;;;;-142.75;70.67;76621.47;5068872;28;20345;-76
2021/07/24 03:29:55;;;;;;;;;;;;;;;-142.75;70.55;76619.50;5067247;28;19923;-74
2021/07/24 03:32:20;;;;;;;;;;;;;;;-142.75;70.58;76621.47;5068802;28;19943;-74
2021/07/24 03:34:45;;;;;;;;;;;;;;;-142.75;70.63;76623.44;5069123;28;20389;-75
2021/07/24 03:37:10;;;;;;;;;;;;;;;-142.75;70.56;76627.38;5067335;28;19970;-75
2021/07/24 03:39:35;;;;;;;;;;;;;;;-142.75;70.61;76623.44;5068066;28;20069;-76
2021/07/24 03:42:01;;;;;;;;;;;;;;;-142.75;70.92;76619.50;5068985;28;19916;-76
2021/07/24 03:44:26;;;;;;;;;;;;;;;-142.75;70.80;76623.44;5068923;28;19920;-76
2021/07/24 03:46:51;;;;;;;;;;;;;;;-142.75;70.68;76625.41;5067615;28;20007;-76
2021/07/24 03:49:16;;;;;;;;;;;;;;;-142.75;70.73;76649.03;5068628;28;20018;-76
2021/07/24 03:51:41;;;;;;;;;;;;;;;-142.75;71.29;76666.75;5068601;28;19924;-76
2021/07/24 03:54:07;;;;;;;;;;;;;;;-142.75;71.49;76676.59;5067596;28;19917;-76
2021/07/24 03:56:32;;;;;;;;;;;;;;;-142.75;71.92;76678.56;5067108;28;19921;-74
2021/07/24 03:58:57;;;;;;;;;;;;;;;-142.75;72.00;76668.72;5068665;28;19917;-74
2021/07/24 04:01:25;;;;;;;;;;;;;;;-142.75;71.87;76672.66;5067260;28;19924;-75
2021/07/24 04:03:52;;;;;;;;;;;;;;;-142.75;72.13;76686.44;5068404;28;19939;-76
2021/07/24 04:06:22;;;;;;;;;;;;;;;-142.75;72.36;76692.34;5068733;28;19917;-76
2021/07/24 04:08:47;;;;;;;;;;;;;;;-142.75;72.37;76700.22;5066260;28;19946;-75
2021/07/24 04:11:13;;;;;;;;;;;;;;;-142.75;72.68;76704.16;5067337;28;19927;-75
2021/07/24 04:13:38;;;;;;;;;;;;;;;-142.75;72.74;76700.22;5067383;28;19916;-75
2021/07/24 04:16:04;;;;;;;;;;;;;;;-142.75;72.58;76706.13;5067731;28;20050;-75
2021/07/24 04:18:32;;;;;;;;;;;;;;;-142.75;72.51;76704.16;5068590;28;19920;-76
2021/07/24 04:20:58;;;;;;;;;;;;;;;-142.75;72.86;76708.09;5067052;28;19921;-75
2021/07/24 04:23:23;;;;;;;;;;;;;;;-142.75;72.50;76700.22;5072578;28;20294;-75
2021/07/24 04:25:49;;;;;;;;;;;;;;;-142.75;72.51;76690.38;5071092;28;19920;-77
2021/07/24 04:28:14;;;;;;;;;;;;;;;-142.75;72.44;76684.47;5072392;28;20356;-76
2021/07/24 04:30:39;;;;;;;;;;;;;;;-142.75;72.19;76688.41;5072145;28;19939;-76
2021/07/24 04:33:04;;;;;;;;;;;;;;;-142.75;72.33;76690.38;5072338;28;20003;-77
2021/07/24 04:35:29;;;;;;;;;;;;;;;-142.75;72.18;76680.53;5072359;28;19970;-78
2021/07/24 04:37:54;;;;;;;;;;;;;;;-142.75;72.17;76674.63;5073034;28;19931;-76
2021/07/24 04:40:20;;;;;;;;;;;;;;;-142.75;72.32;76664.78;5070830;28;20011;-76
2021/07/24 04:42:45;;;;;;;;;;;;;;;-142.75;72.29;76649.03;5068127;28;19916;-74
2021/07/24 04:45:10;;;;;;;;;;;;;;;-142.75;72.13;76629.34;5072086;28;19973;-76
2021/07/24 04:47:35;;;;;;;;;;;;;;;-142.75;71.79;76613.59;5072266;28;19917;-76
2021/07/24 04:50:00;;;;;;;;;;;;;;;-142.75;71.47;76595.88;5070731;28;19917;-76
2021/07/24 04:52:27;;;;;;;;;;;;;;;-142.75;71.17;76578.16;5071919;28;19923;-76
2021/07/24 04:54:54;;;;;;;;;;;;;;;-142.75;71.06;76562.41;5070659;28;19927;-77
2021/07/24 04:57:19;;;;;;;;;;;;;;;-142.75;70.62;76550.59;5071644;28;19924;-76
2021/07/24 04:59:48;;;;;;;;;;;;;;;-142.75;70.47;76574.22;5071807;28;20317;-78
2021/07/24 05:02:14;;;;;;;;;;;;;;;-142.75;70.37;76582.09;5071541;28;20018;-77
2021/07/24 05:04:39;;;;;;;;;;;;;;;-142.75;70.72;76572.25;5071893;28;19926;-76
2021/07/24 05:07:05;;;;;;;;;;;;;;;-142.75;71.02;76556.50;5071941;28;19999;-76
2021/07/24 05:09:30;;;;;;;;;;;;;;;-142.75;70.71;76552.56;5071525;28;19917;-74
2021/07/24 05:11:55;;;;;;;;;;;;;;;-142.75;70.42;76542.72;5071796;28;19923;-77
2021/07/24 05:14:20;;;;;;;;;;;;;;;-142.75;70.36;76515.19;5071657;28;19924;-76
2021/07/24 05:16:45;;;;;;;;;;;;;;;-142.75;70.15;76527.00;5071562;28;20003;-76
2021/07/24 05:19:11;;;;;;;;;;;;;;;-142.75;70.23;76544.69;5071781;28;19923;-74
2021/07/24 05:21:36;;;;;;;;;;;;;;;-142.75;70.88;76542.72;5071651;28;19916;-76
2021/07/24 05:24:01;;;;;;;;;;;;;;;-142.75;70.78;76534.84;5071335;28;20347;-76
2021/07/24 05:26:26;;;;;;;;;;;;;;;-142.75;70.06;76546.66;5071505;28;19956;-76
2021/07/24 05:28:51;;;;;;;;;;;;;;;-142.75;70.80;76534.84;5070076;28;19920;-76
2021/07/24 05:31:21;;;;;;;;;;;;;;;-142.75;70.40;76521.09;5070948;28;20009;-76
2021/07/24 05:33:46;;;;;;;;;;;;;;;-142.75;70.39;76497.47;5069764;28;19970;-76
2021/07/24 05:36:11;;;;;;;;;;;;;;;-142.75;70.14;76493.53;5071112;28;19924;-74
2021/07/24 05:38:37;;;;;;;;;;;;;;;-142.75;69.16;76491.56;5069785;28;20365;-74
2021/07/24 05:41:02;;;;;;;;;;;;;;;-142.75;69.36;76452.19;5069809;28;20461;-76
2021/07/24 05:43:27;;;;;;;;;;;;;;;-142.75;69.02;76440.38;5071212;28;20317;-77
2021/07/24 05:45:53;;;;;;;;;;;;;;;-142.75;68.92;76436.44;5071086;28;20297;-76
2021/07/24 05:48:18;;;;;;;;;;;;;;;-142.75;68.50;76418.72;5069721;28;19928;-75
2021/07/24 05:50:43;;;;;;;;;;;;;;;-142.75;68.89;76416.75;5069643;28;19999;-76
2021/07/24 05:53:08;;;;;;;;;;;;;;;-142.75;68.94;76406.91;5069676;28;19920;-77
2021/07/24 05:55:33;;;;;;;;;;;;;;;-142.75;68.33;76391.16;5069498;28;19917;-77
2021/07/24 05:57:58;;;;;;;;;;;;;;;-142.75;68.36;76420.69;5070836;28;19930;-76
2021/07/24 06:00:24;;;;;;;;;;;;;;;-142.75;68.60;76432.50;5069374;28;19931;-76
2021/07/24 06:02:49;;;;;;;;;;;;;;;-142.75;69.06;76436.44;5069486;28;20385;-76
2021/07/24 06:05:14;;;;;;;;;;;;;;;-142.75;69.47;76416.75;5069530;28;20007;-74
2021/07/24 06:07:39;;;;;;;;;;;;;;;-142.75;69.11;76412.81;5070560;28;19916;-74
2021/07/24 06:10:05;;;;;;;;;;;;;;;-142.75;68.83;76412.81;5069514;28;20266;-75
2021/07/24 06:12:30;;;;;;;;;;;;;;;-142.75;68.64;76408.88;5069448;28;19920;-77
2021/07/24 06:14:55;;;;;;;;;;;;;;;-142.75;68.53;76406.91;5069406;28;19917;-76
2021/07/24 06:17:20;;;;;;;;;;;;;;;-142.75;68.07;76399.03;5069499;28;20406;-77
2021/07/24 06:19:46;;;;;;;;;;;;;;;-142.75;67.85;76416.75;5070279;28;19924;-74
2021/07/24 06:22:11;;;;;;;;;;;;;;;-142.75;68.30;76406.91;5070657;28;19916;-77
2021/07/24 06:24:36;;;;;;;;;;;;;;;-142.75;67.59;76401.00;5070226;28;20446;-76
2021/07/24 06:27:01;;;;;;;;;;;;;;;-142.75;68.70;76381.31;5068898;28;19967;-76
2021/07/24 06:29:27;;;;;;;;;;;;;;;-142.75;67.44;76361.63;5069882;28;19959;-76
2021/07/24 06:31:52;;;;;;;;;;;;;;;-142.75;66.35;76326.22;5069674;28;19956;-74
2021/07/24 06:34:17;;;;;;;;;;;;;;;-142.75;66.51;76328.19;5070048;28;19916;-74
2021/07/24 06:36:42;;;;;;;;;;;;;;;-142.75;66.27;76290.78;5069960;28;19955;-76
2021/07/24 06:39:07;;;;;;;;;;;;;;;-142.75;65.69;76275.03;5068743;28;20031;-76
2021/07/24 06:41:34;;;;;;;;;;;;;;;-142.75;65.60;76275.03;5070104;28;19938;-75
2021/07/24 06:43:59;;;;;;;;;;;;;;;-142.75;65.76;76247.47;5069142;28;19924;-75
2021/07/24 06:46:25;;;;;;;;;;;;;;;-142.75;64.70;76251.41;5069931;28;19916;-77
2021/07/24 06:48:50;;;;;;;;;;;;;;;-142.75;65.15;76271.09;5071050;28;20057;-77
2021/07/24 06:51:15;;;;;;;;;;;;;;;-142.75;66.14;76241.56;5073314;28;20005;-76
2021/07/24 06:53:40;;;;;;;;;;;;;;;-142.75;65.34;76215.97;5069604;28;19921;-77
2021/07/24 06:56:05;;;;;;;;;;;;;;;-142.75;65.09;76192.38;5070684;28;19966;-74
2021/07/24 06:58:32;;;;;;;;;;;;;;;-142.75;63.97;76160.88;5069261;28;20350;-75
2021/07/24 07:00:57;;;;;;;;;;;;;;;-142.75;62.76;76115.59;5069013;28;19924;-76
2021/07/24 07:03:23;;;;;;;;;;;;;;;-142.75;62.95;76105.75;5068165;28;19916;-77
2021/07/24 07:05:49;;;;;;;;;;;;;;;-142.75;62.52;76082.13;5069416;28;19921;-76
2021/07/24 07:08:14;;;;;;;;;;;;;;;-142.75;62.12;76080.16;5069171;28;19930;-76
2021/07/24 07:10:39;;;;;;;;;;;;;;;-142.75;61.90;76060.50;5069316;28;19955;-76
2021/07/24 07:13:04;;;;;;;;;;;;;;;-142.75;62.06;76058.53;5067992;28;20412;-77
2021/07/24 07:15:30;;;;;;;;;;;;;;;-142.75;61.18;76064.44;5067147;28;19916;-77
2021/07/24 07:17:55;;;;;;;;;;;;;;;-142.75;61.21;76076.22;5067310;28;20381;-76
2021/07/24 07:20:21;;;;;;;;;;;;;;;-142.75;63.05;76107.72;5068422;28;19916;-76
2021/07/24 07:22:46;;;;;;;;;;;;;;;-142.75;63.39;76121.50;5068450;28;20012;-76
2021/07/24 07:25:11;;;;;;;;;;;;;;;-142.75;63.33;76097.88;5066826;28;19978;-77
2021/07/24 07:27:40;;;;;;;;;;;;;;;-142.75;62.06;76093.94;5067760;28;20402;-76
2021/07/24 07:30:06;;;;;;;;;;;;;;;-142.75;62.55;76119.53;5066646;28;19961;-77
2021/07/24 07:32:31;;;;;;;;;;;;;;;-142.75;63.21;76129.38;5066693;28;19920;-76
2021/07/24 07:34:56;;;;;;;;;;;;;;;-142.75;63.24;76141.19;5067290;28;20305;-76
2021/07/24 07:37:22;;;;;;;;;;;;;;;-142.75;64.23;76117.56;5068847;28;19927;-75
2021/07/24 07:39:47;;;;;;;;;;;;;;;-142.75;63.24;76080.16;5068486;28;19995;-77
2021/07/24 07:42:12;;;;;;;;;;;;;;;-142.75;62.96;76052.63;5068501;28;19920;-77
2021/07/24 07:44:38;;;;;;;;;;;;;;;-142.75;61.92;76034.91;5067964;28;19928;-76
2021/07/24 07:47:04;;;;;;;;;;;;;;;-142.75;62.50;76030.97;5066974;28;20366;-76
2021/07/24 07:49:29;;;;;;;;;;;;;;;-142.75;62.34;76015.22;5067754;28;19956;-76
2021/07/24 07:51:54;;;;;;;;;;;;;;;-142.75;62.28;75979.78;5069314;28;19924;-76
2021/07/24 07:54:19;;;;;;;;;;;;;;;-142.75;61.56;75969.94;5067484;28;19948;-76
2021/07/24 07:56:44;;;;;;;;;;;;;;;-142.75;61.13;75956.19;5064970;28;19923;-76
2021/07/24 07:59:09;;;;;;;;;;;;;;;-142.75;61.02;75948.31;5067721;28;19924;-76
2021/07/24 08:01:35;;;;;;;;;;;;;;;-142.75;60.34;75940.44;5067852;28;19939;-75
2021/07/24 08:04:00;;;;;;;;;;;;;;;-142.75;61.09;75932.56;5066481;28;19916;-77
2021/07/24 08:06:25;;;;;;;;;;;;;;;-142.75;59.93;75938.47;5066773;28;19971;-76
2021/07/24 08:08:50;;;;;;;;;;;;;;;-142.75;61.38;75942.41;5067738;28;19962;-76
2021/07/24 08:11:15;;;;;;;;;;;;;;;-142.75;61.28;75948.31;5068652;28;20350;-76
2021/07/24 08:13:41;;;;;;;;;;;;;;;-142.75;61.28;75977.81;5068671;28;20408;-77
2021/07/24 08:16:15;;;;;;;;;;;;;;;-142.75;62.23;75981.75;5068729;28;20012;-76
2021/07/24 08:18:41;;;;;;;;;;;;;;;-142.75;61.32;75989.63;5069826;28;20413;-77
2021/07/24 08:21:06;;;;;;;;;;;;;;;-142.75;61.43;75991.59;5067723;28;19923;-74
2021/07/24 08:23:31;;;;;;;;;;;;;;;-142.75;61.06;75977.81;5067609;28;19922;-75
2021/07/24 08:25:56;;;;;;;;;;;;;;;-142.75;60.29;75985.69;5067619;28;19943;-75
2021/07/24 08:28:25;;;;;;;;;;;;;;;-142.75;61.99;75983.72;5067718;28;20372;-76
2021/07/24 08:30:50;;;;;;;;;;;;;;;-142.75;62.06;75960.13;5066361;28;19923;-76
2021/07/24 08:33:15;;;;;;;;;;;;;;;-142.75;62.00;75938.47;5067755;28;20022;-74
2021/07/24 08:35:40;;;;;;;;;;;;;;;-142.75;61.54;75918.78;5067763;28;19924;-76
2021/07/24 08:38:05;;;;;;;;;;;;;;;-142.75;61.32;75895.16;5067368;28;19917;-76
2021/07/24 08:40:31;;;;;;;;;;;;;;;-142.75;60.22;75879.41;5067678;28;19924;-75
2021/07/24 08:43:01;;;;;;;;;;;;;;;-142.75;60.33;75849.91;5066985;28;19951;-75
2021/07/24 08:45:26;;;;;;;;;;;;;;;-142.75;59.82;75822.34;5066835;28;20329;-75
2021/07/24 08:47:52;;;;;;;;;;;;;;;-142.75;59.04;75790.84;5067721;28;19920;-76
2021/07/24 08:50:17;;;;;;;;;;;;;;;-142.75;58.49;75765.25;5067540;28;19916;-75
2021/07/24 08:52:46;;;;;;;;;;;;;;;-142.75;58.58;75723.94;5067840;28;20429;-76
2021/07/24 08:55:11;;;;;;;;;;;;;;;-142.75;57.84;75684.56;5067365;28;19916;-77
2021/07/24 08:57:38;;;;;;;;;;;;;;;-142.75;56.90;75635.38;5066026;28;19923;-76
2021/07/24 09:00:06;;;;;;;;;;;;;;;-142.75;56.47;75584.22;5067073;28;20336;-76
2021/07/24 09:02:35;;;;;;;;;;;;;;;-142.75;55.34;75533.03;5067355;28;19925;-75
2021/07/24 09:05:04;;;;;;;;;;;;;;;-142.75;53.50;75507.47;5066087;28;19927;-76
2021/07/24 09:07:31;;;;;;;;;;;;;;;-142.75;52.84;75497.63;5070547;28;19920;-76
2021/07/24 09:09:58;;;;;;;;;;;;;;;-142.75;53.49;75466.13;5069264;28;19920;-76
2021/07/24 09:12:23;;;;;;;;;;;;;;;-142.75;53.04;75448.41;5070105;28;19916;-75
2021/07/24 09:14:49;;;;;;;;;;;;;;;-142.75;53.15;75450.38;5069543;28;19923;-75
2021/07/24 09:17:18;;;;;;;;;;;;;;;-142.75;52.61;75446.44;5071057;28;19916;-76
2021/07/24 09:19:43;;;;;;;;;;;;;;;-142.75;52.65;75432.69;5070773;28;19920;-77
2021/07/24 09:22:28;;;;;;;;;;;;;;;-142.75;52.48;75444.47;5069651;28;20527;-77
2021/07/24 09:25:07;;;;;;;;;;;;;;;-142.75;53.08;75456.28;5070516;28;19921;-75
2021/07/24 09:27:33;;;;;;;;;;;;;;;-142.75;52.90;75466.13;5070749;28;19927;-77
2021/07/24 09:29:58;;;;;;;;;;;;;;;-142.75;53.49;75475.97;5069270;28;19916;-77
2021/07/24 09:32:23;;;;;;;;;;;;;;;-142.75;53.94;75468.09;5070466;28;20287;-76
2021/07/24 09:37:51;;;;;;;;;;;;;;;-142.75;53.17;75418.91;5070956;28;19923;-76
2021/07/24 09:40:20;;;;;;;;;;;;;;;-142.75;51.98;75395.28;5070441;28;19916;-76
2021/07/24 09:42:45;;;;;;;;;;;;;;;-142.75;51.89;75389.38;5071428;28;19917;-76
2021/07/24 09:45:11;;;;;;;;;;;;;;;-142.75;51.54;75399.22;5070934;28;19928;-77
2021/07/24 09:47:36;;;;;;;;;;;;;;;-142.75;52.03;75409.06;5071241;28;20290;-75
2021/07/24 09:50:08;;;;;;;;;;;;;;;-142.75;51.40;75420.88;5069112;28;19962;-75
2021/07/24 09:52:43;;;;;;;;;;;;;;;-142.75;51.91;75430.72;5070841;28;20301;-77
2021/07/24 09:55:26;;;;;;;;;;;;;;;-142.75;52.52;75458.25;5070113;28;19917;-76
2021/07/24 09:57:57;;;;;;;;;;;;;;;-142.75;52.56;75487.78;5070112;28;19917;-77
2021/07/24 10:00:24;;;;;;;;;;;;;;;-142.75;53.27;75485.81;5069836;28;19929;-76
2021/07/24 10:02:56;;;;;;;;;;;;;;;-142.75;53.25;75523.19;5068711;28;20374;-74
2021/07/24 10:05:22;;;;;;;;;;;;;;;-142.75;54.41;75546.81;5069944;28;20339;-76
2021/07/24 10:07:47;;;;;;;;;;;;;;;-142.75;54.96;75597.97;5068727;28;19916;-76
2021/07/24 10:10:15;;;;;;;;;;;;;;;-142.75;55.77;75633.41;5068230;28;19952;-76
2021/07/24 10:12:40;;;;;;;;;;;;;;;-142.75;56.50;75686.53;5069136;28;19916;-73
2021/07/24 10:15:06;;;;;;;;;;;;;;;-142.75;57.40;75704.25;5069782;28;19923;-73
2021/07/24 10:17:31;;;;;;;;;;;;;;;-142.75;57.44;75700.31;5069076;28;19924;-75
2021/07/24 10:19:57;;;;;;;;;;;;;;;-142.75;56.96;75676.69;5069404;28;19917;-74
2021/07/24 10:22:23;;;;;;;;;;;;;;;-142.75;57.46;75651.13;5069813;28;19954;-75
2021/07/24 10:24:48;;;;;;;;;;;;;;;-142.75;57.09;75621.59;5069721;28;19963;-76
2021/07/24 10:27:17;;;;;;;;;;;;;;;-142.75;56.70;75603.88;5066435;28;19917;-75
2021/07/24 10:29:45;;;;;;;;;;;;;;;-142.75;56.11;75584.22;5069548;28;20317;-76
2021/07/24 10:32:15;;;;;;;;;;;;;;;-142.75;56.20;75568.47;5069236;28;19916;-77
2021/07/24 10:34:47;;;;;;;;;;;;;;;-142.75;55.21;75564.53;5069434;28;20271;-75
2021/07/24 10:37:31;;;;;;;;;;;;;;;-142.75;55.80;75556.66;5070490;28;20601;-75
2021/07/24 10:40:15;;;;;;;;;;;;;;;-142.75;56.25;75566.50;5069431;28;20378;-75
2021/07/24 10:42:40;;;;;;;;;;;;;;;-142.75;56.34;75554.69;5069773;28;19920;-75
2021/07/24 10:45:25;;;;;;;;;;;;;;;-142.75;55.98;75542.88;5069260;28;20313;-76
2021/07/24 10:48:09;;;;;;;;;;;;;;;-142.75;56.01;75535.00;5068814;28;19916;-76
2021/07/24 10:51:07;;;;;;;;;;;;;;;-142.75;55.93;75523.19;5068304;28;19916;-76
2021/07/24 10:53:51;;;;;;;;;;;;;;;-142.75;56.10;75517.28;5046283;28;20458;-76
2021/07/24 10:56:39;;;;;;;;;;;;;;;-142.75;56.14;75523.19;5068251;28;19937;-76
2021/07/24 10:59:13;;;;;;;;;;;;;;;-142.75;56.81;75554.69;5069586;28;19917;-76
2021/07/24 11:01:48;;;;;;;;;;;;;;;-142.75;55.88;75558.63;5069247;28;19925;-76
2021/07/24 11:04:32;;;;;;;;;;;;;;;-142.75;57.18;75582.25;5069357;28;19923;-76
2021/07/24 11:07:29;;;;;;;;;;;;;;;-142.75;57.81;75566.50;5069492;28;20007;-75
2021/07/24 11:09:54;;;;;;;;;;;;;;;-142.75;57.37;75562.56;5045852;28;20006;-75
2021/07/24 11:12:33;;;;;;;;;;;;;;;-142.75;57.81;75580.28;5069582;28;20478;-74
2021/07/24 11:14:58;;;;;;;;;;;;;;;-142.75;56.97;75601.91;5070420;28;19921;-76
2021/07/24 11:17:24;;;;;;;;;;;;;;;-142.75;57.79;75607.81;5070362;28;19916;-76
2021/07/24 11:19:49;;;;;;;;;;;;;;;-142.75;57.95;75611.75;5070027;28;19920;-74
2021/07/24 11:22:25;;;;;;;;;;;;;;;-142.75;58.26;75609.78;5071400;28;19917;-75
2021/07/24 11:24:50;;;;;;;;;;;;;;;-142.75;58.35;75597.97;5070794;28;20003;-76
2021/07/24 11:27:25;;;;;;;;;;;;;;;-142.75;58.52;75599.94;5070893;28;20003;-74
2021/07/24 11:29:50;;;;;;;;;;;;;;;-142.75;58.52;75601.91;5070587;28;19920;-75
2021/07/24 11:32:23;;;;;;;;;;;;;;;-142.75;59.13;75615.69;5070823;28;19922;-76
2021/07/24 11:34:55;;;;;;;;;;;;;;;-142.75;58.94;75641.28;5070967;28;19920;-76
2021/07/24 11:37:32;;;;;;;;;;;;;;;-142.75;59.57;75645.22;5070992;28;20408;-75
2021/07/24 11:39:57;;;;;;;;;;;;;;;-142.75;59.67;75645.22;5069494;28;20374;-77
2021/07/24 11:42:22;;;;;;;;;;;;;;;-142.75;59.58;75660.97;5068854;28;19965;-75
2021/07/24 11:44:48;;;;;;;;;;;;;;;-142.75;60.05;75651.13;5070770;28;19932;-77
2021/07/24 11:47:15;;;;;;;;;;;;;;;-142.75;60.75;75641.28;5070727;28;19924;-77
2021/07/24 11:49:43;;;;;;;;;;;;;;;-142.75;61.23;75655.06;5069647;28;20384;-75
2021/07/24 11:52:09;;;;;;;;;;;;;;;-142.75;60.80;75657.03;5070861;28;19923;-76
2021/07/24 11:54:34;;;;;;;;;;;;;;;-142.75;60.88;75653.09;5071004;28;19916;-77
2021/07/24 11:57:00;;;;;;;;;;;;;;;-142.75;59.73;75641.28;5069346;28;19916;-76
2021/07/24 11:59:26;;;;;;;;;;;;;;;-142.75;58.54;75639.31;5070675;28;20320;-75
2021/07/24 12:01:52;;;;;;;;;;;;;;;-142.75;58.03;75637.34;5070377;28;19928;-76
2021/07/24 12:04:17;;;;;;;;;;;;;;;-142.75;58.99;75641.28;5069648;28;19931;-76
2021/07/24 12:07:01;;;;;;;;;;;;;;;-142.75;58.66;75641.28;5071003;28;19925;-75
2021/07/24 12:09:27;;;;;;;;;;;;;;;-142.75;58.23;75641.28;5069236;28;20302;-77
2021/07/24 12:11:57;;;;;;;;;;;;;;;-142.75;58.35;75629.47;5070395;28;19923;-76
2021/07/24 12:14:23;;;;;;;;;;;;;;;-142.75;58.12;75645.22;5069291;28;19920;-76
2021/07/24 12:17:01;;;;;;;;;;;;;;;-142.75;58.22;75637.34;5070537;28;19980;-76
2021/07/24 12:19:33;;;;;;;;;;;;;;;-142.75;59.06;75645.22;5069205;28;20370;-76
2021/07/24 12:22:10;;;;;;;;;;;;;;;-142.75;58.90;75651.13;5069396;28;19928;-76
2021/07/24 12:24:35;;;;;;;;;;;;;;;-142.75;59.22;75645.22;5068630;28;19920;-76
2021/07/24 12:27:04;;;;;;;;;;;;;;;-142.75;59.43;75631.44;5070358;28;19924;-76
2021/07/24 12:29:29;;;;;;;;;;;;;;;-142.75;59.47;75625.53;5070791;28;20010;-76
2021/07/24 12:31:55;;;;;;;;;;;;;;;-142.75;58.69;75643.25;5069548;28;20011;-77